Owatonna, MN

11:22 PM CST on February 06, 2016 (GMT -0600)
Owatonna Degner Regional | | Change Station
CLOSE
Current Station
Airport
Location: Owatonna,
Elevation: 1145 ft
Nearby Weather Stations
Active Advisory: Blizzard Warning

Elev 1145 ft 44.12 °N, 93.26 °W | Updated 6 minutes ago

Scattered Clouds
Scattered Clouds
34 °F
Feels Like 23 °F
N
17
Wind Variable Wind from SSW
Gusts 23 mph

Today
High -- | Low -- °F
--% Chance of Precip.
Yesterday
High -- | Low -- °F
Precip. -- in
Pressure 29.80 in
Visibility 10.0 miles
Clouds Scattered Clouds 12000 ft
Windchill 23 °F
Dew Point 27 °F
Humidity 75%
Rainfall 0.00 in
Snow Depth Not available.
7:25 AM 5:29 PM
Waning Crescent, 3% visible
METAR KOWA 070516Z AUTO 20015G20KT 10SM SCT120 01/M03 A2980 RMK AO2
Pressure 29.80 in
Visibility 10.0 miles
Clouds Scattered Clouds 12000 ft
Windchill 23 °F
Dew Point 27 °F
Humidity 75%
Rainfall 0.00 in
Snow Depth Not available.
7:25 AM 5:29 PM
Waning Crescent, 3% visible
METAR KOWA 070516Z AUTO 20015G20KT 10SM SCT120 01/M03 A2980 RMK AO2

10-Day Weather Forecast

Almanac

Astronomy

Feb. 06, 2016 Rise Set
Actual Time
Civil Twilight
Nautical Twilight
Astronomical Twilight
Moon
Length of Visible Light
Length of Day
Tomorrow will be .
, % of the Moon is Illuminated

Today's Extremes

State Highs State Lows

Community

WunderPhotos

Upload Photos

1,891,163 photos uploaded!

WunderBlog® & News

Nearby

Air Quality

  Air Quality AQ Index Pollutant
Not available.

Snow Depth

Station Depth Elevation

Earthquake Activity

City Distance Mag. Time & Date
Minimum magnitude displayed is 2.5.

Coastal Water Temperatures

Place Temperature

Stations

Nearby Weather Stations

Station Location Temp. Windchill Dew Point Humidity Wind Precip. Elev Updated Type
                   

Watches & Warnings

Blizzard Warning
Issued: 8:53 PM CST Feb. 6, 2016 – National Weather Service

... Blizzard Warning in effect from 3 PM Sunday to noon CST
Monday...

The National Weather Service in Twin Cities/Chanhassen has issued
a Blizzard Warning... which is in effect from 3 PM Sunday to noon
CST Monday. The blizzard watch is no longer in effect.

* Expect blizzard conditions to develop after 3 PM Sunday and
then diminish around noon Monday.

* Winds gusting as high as 55 mph will cause whiteout conditions
in blowing snow. Significant drifting of the snow is likely.

* Snow accumulations of up to 1 inch are expected.

* Travel will be very difficult or impossible and Road closures
are possible.

Precautionary/preparedness actions...

A Blizzard Warning means severe winter weather conditions are
expected or occurring. Falling and blowing snow with strong winds
and poor visibilities are likely. This will lead to whiteout
conditions... making travel extremely dangerous. Do not travel. If
you must travel... have a winter survival kit with you. If you get
stranded... stay with your vehicle. The latest Road conditions for
the state you are calling from can be obtained by calling 5 1 1.